Time;durP1;ratioP1;P1;durP2;ratioP2;P2;SDS_P1;SDS_P2;PMS_P1;PMS_P2;Temp;Humidity;BMP_temperature;BMP_pressure;BME280_temperature;BME280_humidity;BME280_pressure;Samples;Min_cycle;Max_cycle;Signal;HPM_P1;HPM_P2
2021/01/11 00:00:44;;;;;;;29.03;19.03;;;4.40;91.50;;;;;;4315736;33;20240;-63
2021/01/11 00:03:11;;;;;;;28.23;18.43;;;4.40;91.50;;;;;;4313506;33;20193;-63
2021/01/11 00:05:37;;;;;;;29.57;19.03;;;4.40;91.50;;;;;;4314245;33;20198;-67
2021/01/11 00:08:05;;;;;;;30.60;19.83;;;4.40;91.40;;;;;;4314541;33;20645;-63
2021/01/11 00:11:07;;;;;;;29.93;19.30;;;4.40;91.50;;;;;;4313713;33;20147;-62
2021/01/11 00:13:35;;;;;;;29.63;19.07;;;4.40;91.50;;;;;;4314548;33;20196;-63
2021/01/11 00:16:05;;;;;;;36.90;20.67;;;4.40;91.50;;;;;;4314193;33;20219;-66
2021/01/11 00:18:44;;;;;;;31.53;20.03;;;4.40;91.60;;;;;;4313146;33;20645;-67
2021/01/11 00:21:15;;;;;;;33.20;20.50;;;4.40;91.60;;;;;;4312579;33;20185;-63
2021/01/11 00:23:45;;;;;;;32.90;20.43;;;4.30;91.70;;;;;;4316542;33;20157;-65
2021/01/11 00:26:12;;;;;;;35.37;21.73;;;4.40;91.60;;;;;;4316831;33;20146;-63
2021/01/11 00:28:41;;;;;;;34.63;21.17;;;4.30;91.60;;;;;;4316654;33;20172;-66
2021/01/11 00:31:21;;;;;;;37.10;21.60;;;4.30;91.80;;;;;;4318002;33;20233;-67
2021/01/11 00:33:58;;;;;;;39.77;21.43;;;4.30;91.90;;;;;;4308747;33;20157;-64
2021/01/11 00:36:30;;;;;;;37.43;23.10;;;4.30;92.00;;;;;;4315699;33;20146;-68
2021/01/11 00:39:01;;;;;;;41.00;24.53;;;4.30;91.90;;;;;;4316427;33;20146;-64
2021/01/11 00:41:35;;;;;;;41.40;23.90;;;4.30;91.90;;;;;;4316493;33;20211;-66
2021/01/11 00:44:04;;;;;;;42.30;24.13;;;4.30;92.00;;;;;;4316721;33;20215;-65
2021/01/11 00:46:33;;;;;;;41.43;24.37;;;4.30;92.00;;;;;;4305442;33;20197;-65
2021/01/11 00:49:00;;;;;;;39.30;23.77;;;4.30;91.90;;;;;;4316726;33;20144;-65
2021/01/11 00:51:29;;;;;;;43.20;25.40;;;4.40;91.80;;;;;;4317179;33;20158;-63
2021/01/11 00:53:55;;;;;;;37.27;22.97;;;4.30;91.90;;;;;;4316627;33;20155;-63
2021/01/11 00:56:25;;;;;;;36.33;22.57;;;4.30;91.80;;;;;;4311079;33;20150;-63
2021/01/11 00:58:56;;;;;;;40.20;24.03;;;4.30;91.90;;;;;;4316945;33;20214;-63
2021/01/11 01:01:33;;;;;;;38.40;23.33;;;4.30;91.80;;;;;;4318162;33;20208;-63
2021/01/11 01:04:06;;;;;;;36.67;23.10;;;4.40;91.70;;;;;;4314543;33;20173;-62
2021/01/11 01:06:46;;;;;;;37.63;22.80;;;4.40;91.70;;;;;;4318353;33;20650;-63
2021/01/11 01:09:24;;;;;;;38.53;22.47;;;4.40;91.70;;;;;;4324948;33;20153;-63
2021/01/11 01:11:52;;;;;;;37.93;22.77;;;4.40;91.70;;;;;;4316828;33;20184;-64
2021/01/11 01:14:29;;;;;;;39.97;24.47;;;4.40;91.70;;;;;;4316781;33;20552;-62
2021/01/11 01:16:57;;;;;;;35.20;22.07;;;4.40;91.60;;;;;;4317604;33;20262;-63
2021/01/11 01:19:29;;;;;;;38.13;22.50;;;4.40;91.60;;;;;;4316760;33;20152;-63
2021/01/11 01:21:55;;;;;;;36.57;23.43;;;4.40;91.60;;;;;;4317821;33;20465;-63
2021/01/11 01:24:23;;;;;;;37.87;23.63;;;4.40;91.60;;;;;;4316534;33;20174;-63
2021/01/11 01:26:53;;;;;;;37.83;24.37;;;4.50;91.50;;;;;;4315400;33;20159;-63
2021/01/11 01:29:22;;;;;;;38.10;24.70;;;4.50;91.50;;;;;;4316471;33;20491;-63
2021/01/11 01:31:50;;;;;;;38.87;24.37;;;4.50;91.40;;;;;;4312950;33;20150;-63
2021/01/11 01:34:16;;;;;;;38.50;24.37;;;4.40;91.40;;;;;;4311397;33;20638;-63
2021/01/11 01:36:46;;;;;;;40.57;24.70;;;4.40;91.50;;;;;;4315863;33;20193;-63
2021/01/11 01:39:16;;;;;;;38.30;24.33;;;4.40;91.60;;;;;;4315048;33;20183;-64
2021/01/11 01:41:47;;;;;;;41.23;25.47;;;4.30;91.70;;;;;;4316305;33;20251;-63
2021/01/11 01:44:26;;;;;;;39.97;25.80;;;4.30;91.80;;;;;;4304025;33;20164;-63
2021/01/11 01:46:55;;;;;;;39.50;24.60;;;4.30;91.80;;;;;;4312296;33;20182;-63
2021/01/11 01:49:24;;;;;;;41.03;25.07;;;4.40;91.80;;;;;;4316401;33;20292;-63
2021/01/11 01:51:59;;;;;;;41.90;25.13;;;4.50;91.50;;;;;;4316402;33;20145;-63
2021/01/11 01:54:26;;;;;;;44.77;25.73;;;4.40;91.40;;;;;;4317229;33;20168;-63
2021/01/11 01:57:00;;;;;;;45.37;26.70;;;4.50;91.40;;;;;;4316415;33;20139;-63
2021/01/11 01:59:30;;;;;;;41.90;25.43;;;4.40;91.40;;;;;;4311801;33;20249;-63
2021/01/11 02:02:00;;;;;;;39.23;25.37;;;4.40;91.50;;;;;;4307685;33;20172;-64
2021/01/11 02:04:29;;;;;;;62.23;26.80;;;4.40;91.50;;;;;;4314578;33;20141;-63
2021/01/11 02:07:10;;;;;;;49.50;27.43;;;4.40;91.50;;;;;;4311211;33;20158;-63
2021/01/11 02:09:44;;;;;;;48.10;28.07;;;4.40;91.60;;;;;;4322888;33;20151;-64
2021/01/11 02:12:22;;;;;;;41.40;26.23;;;4.40;91.50;;;;;;4315780;33;20227;-64
2021/01/11 02:15:02;;;;;;;45.67;27.37;;;4.40;91.60;;;;;;4317604;33;20161;-64
2021/01/11 02:17:36;;;;;;;48.13;27.30;;;4.40;91.50;;;;;;4310853;33;20236;-64
2021/01/11 02:20:52;;;;;;;40.37;27.00;;;4.30;91.50;;;;;;4313870;33;20676;-63
2021/01/11 02:24:06;;;;;;;45.83;27.07;;;4.30;91.60;;;;;;4252197;33;20608;-64
2021/01/11 02:26:54;;;;;;;41.07;25.97;;;4.30;91.50;;;;;;4181533;34;20149;-64
2021/01/11 02:29:32;;;;;;;46.47;28.03;;;4.30;91.60;;;;;;4172087;34;20141;-64
2021/01/11 02:32:01;;;;;;;46.83;28.20;;;4.30;91.60;;;;;;4178609;34;20175;-64
2021/01/11 02:34:35;;;;;;;47.90;29.40;;;4.30;91.60;;;;;;4185824;34;20199;-64
2021/01/11 02:37:02;;;;;;;49.63;28.83;;;4.30;91.80;;;;;;4186370;34;20219;-64
2021/01/11 02:39:30;;;;;;;52.30;30.73;;;4.30;91.70;;;;;;4187724;34;20155;-64
2021/01/11 02:41:58;;;;;;;51.07;31.53;;;4.20;91.70;;;;;;4186277;34;20152;-64
2021/01/11 02:44:34;;;;;;;52.87;32.67;;;4.20;91.60;;;;;;4187950;34;20190;-63
2021/01/11 02:47:09;;;;;;;60.97;36.30;;;4.20;91.70;;;;;;4198476;34;20175;-63
2021/01/11 02:49:42;;;;;;;62.03;36.63;;;4.10;91.80;;;;;;4183159;34;20363;-64
2021/01/11 02:52:15;;;;;;;58.33;36.33;;;4.00;91.80;;;;;;4189818;34;20167;-62
2021/01/11 02:54:53;;;;;;;60.97;35.07;;;4.00;92.00;;;;;;4188803;34;20193;-63
2021/01/11 02:57:34;;;;;;;63.90;38.93;;;4.00;92.00;;;;;;4212404;34;20178;-63
2021/01/11 03:00:13;;;;;;;64.93;39.40;;;4.00;92.00;;;;;;4228730;34;20492;-63
2021/01/11 03:02:45;;;;;;;66.37;39.80;;;4.00;92.00;;;;;;4266840;33;20232;-63
2021/01/11 03:05:13;;;;;;;60.67;38.00;;;3.90;92.00;;;;;;4327800;33;20199;-62
2021/01/11 03:07:40;;;;;;;67.77;39.37;;;3.90;92.10;;;;;;4329530;33;20229;-63
2021/01/11 03:10:27;;;;;;;67.07;39.63;;;3.70;92.20;;;;;;4331038;33;20212;-63
2021/01/11 03:12:53;;;;;;;74.43;41.03;;;3.70;92.30;;;;;;4328897;33;20167;-64
2021/01/11 03:15:38;;;;;;;68.33;39.80;;;3.70;92.40;;;;;;4327057;33;20153;-64
2021/01/11 03:18:07;;;;;;;69.53;41.67;;;3.70;92.40;;;;;;4328977;33;20216;-64
2021/01/11 03:20:35;;;;;;;70.70;40.67;;;3.70;92.50;;;;;;4329411;33;20165;-63
2021/01/11 03:23:05;;;;;;;74.17;42.73;;;3.60;92.50;;;;;;4329941;33;20207;-63
2021/01/11 03:25:31;;;;;;;74.50;43.03;;;3.70;92.50;;;;;;4331310;33;20181;-64
2021/01/11 03:28:00;;;;;;;80.00;45.50;;;3.60;92.60;;;;;;4329174;33;20532;-63
2021/01/11 03:30:26;;;;;;;80.57;46.07;;;3.60;92.60;;;;;;4329570;33;20482;-64
2021/01/11 03:32:57;;;;;;;82.40;44.13;;;3.60;92.70;;;;;;4328552;33;20483;-63
2021/01/11 03:35:28;;;;;;;77.70;42.10;;;3.60;92.70;;;;;;4329288;33;20153;-63
2021/01/11 03:38:04;;;;;;;78.93;44.10;;;3.60;92.70;;;;;;4328994;33;20584;-63
2021/01/11 03:40:35;;;;;;;91.10;46.10;;;3.60;92.70;;;;;;4328895;33;20141;-64
2021/01/11 03:43:01;;;;;;;93.20;47.80;;;3.60;92.60;;;;;;4329014;33;20243;-62
2021/01/11 03:45:38;;;;;;;91.70;47.30;;;3.60;92.60;;;;;;4329273;33;20141;-64
2021/01/11 03:48:08;;;;;;;84.30;44.87;;;3.70;92.70;;;;;;4320364;33;20493;-64
2021/01/11 03:50:39;;;;;;;90.87;48.40;;;3.70;92.70;;;;;;4329510;33;20590;-63
2021/01/11 03:53:07;;;;;;;86.80;47.60;;;3.60;92.70;;;;;;4331334;33;20216;-63
2021/01/11 03:55:34;;;;;;;89.67;48.10;;;3.70;92.70;;;;;;4325826;33;20150;-63
2021/01/11 03:58:05;;;;;;;92.07;47.10;;;3.70;92.70;;;;;;4327890;33;20149;-63
2021/01/11 04:00:31;;;;;;;88.70;48.40;;;3.70;92.70;;;;;;4331000;33;20164;-63
2021/01/11 04:03:00;;;;;;;100.97;51.47;;;3.70;93.00;;;;;;4332345;33;20158;-63
2021/01/11 04:05:29;;;;;;;88.47;45.80;;;3.70;92.60;;;;;;4328985;33;20192;-63
2021/01/11 04:08:05;;;;;;;90.53;46.47;;;3.70;92.70;;;;;;4329061;33;20278;-63
2021/01/11 04:10:32;;;;;;;88.73;47.63;;;3.70;92.60;;;;;;4332136;33;20195;-63
2021/01/11 04:12:58;;;;;;;90.23;46.70;;;3.70;92.50;;;;;;4319766;33;20297;-63
2021/01/11 04:15:25;;;;;;;86.47;47.03;;;3.80;92.40;;;;;;4326169;33;20428;-63
2021/01/11 04:17:54;;;;;;;93.20;48.20;;;3.70;92.40;;;;;;4328945;33;20210;-64
2021/01/11 04:20:24;;;;;;;104.53;49.83;;;3.80;92.60;;;;;;4332575;33;20157;-63
2021/01/11 04:23:05;;;;;;;;;;;;;;;;;;;;;
2021/01/11 04:25:33;;;;;;;112.33;51.93;;;3.70;92.70;;;;;;4317489;33;20525;-63
2021/01/11 04:28:04;;;;;;;111.50;51.10;;;3.70;92.70;;;;;;4317019;33;20290;-63
2021/01/11 04:30:33;;;;;;;127.13;56.17;;;3.70;92.80;;;;;;4318692;33;20152;-63
2021/01/11 04:33:02;;;;;;;106.53;50.90;;;3.70;92.80;;;;;;4319045;33;20162;-62
2021/01/11 04:35:29;;;;;;;112.10;54.30;;;3.70;92.80;;;;;;4308153;33;20189;-63
2021/01/11 04:37:58;;;;;;;111.50;49.03;;;3.70;92.80;;;;;;4303497;33;20165;-63
2021/01/11 04:40:25;;;;;;;114.07;50.60;;;3.60;93.00;;;;;;4303625;33;20239;-62
2021/01/11 04:43:05;;;;;;;109.73;49.63;;;3.60;93.00;;;;;;4313025;33;20210;-63
2021/01/11 04:45:44;;;;;;;120.80;51.50;;;3.70;93.00;;;;;;4317727;33;20408;-63
2021/01/11 04:48:16;;;;;;;122.80;52.67;;;3.70;93.00;;;;;;4319862;33;20169;-63
2021/01/11 04:50:43;;;;;;;109.03;49.13;;;3.80;93.00;;;;;;4315867;33;20172;-63
2021/01/11 04:53:19;;;;;;;123.17;51.30;;;3.70;93.00;;;;;;4312337;33;20143;-63
2021/01/11 04:55:48;;;;;;;133.87;54.27;;;3.70;93.10;;;;;;4316322;33;20168;-62
2021/01/11 04:58:21;;;;;;;121.20;51.13;;;3.70;93.20;;;;;;4316795;33;20218;-63
2021/01/11 05:00:49;;;;;;;111.67;49.27;;;3.70;93.10;;;;;;4317061;33;20215;-63
2021/01/11 05:03:15;;;;;;;119.90;50.90;;;3.70;93.20;;;;;;4316443;33;20255;-63
2021/01/11 05:05:44;;;;;;;112.43;47.30;;;3.80;93.20;;;;;;4316504;33;20242;-63
2021/01/11 05:08:12;;;;;;;129.60;52.30;;;3.80;93.20;;;;;;4315722;33;20481;-63
2021/01/11 05:10:43;;;;;;;108.77;47.83;;;3.80;93.20;;;;;;4316227;33;20154;-63
2021/01/11 05:13:14;;;;;;;120.27;49.93;;;3.80;93.20;;;;;;4316711;33;20146;-63
2021/01/11 05:15:45;;;;;;;128.00;52.63;;;3.80;93.30;;;;;;4317707;33;20160;-63
2021/01/11 05:18:16;;;;;;;128.03;51.90;;;3.70;93.40;;;;;;4316656;33;20196;-63
2021/01/11 05:20:44;;;;;;;115.87;47.70;;;3.80;93.40;;;;;;4304343;33;20188;-63
2021/01/11 05:23:12;;;;;;;104.73;48.47;;;3.80;93.40;;;;;;4302059;33;20180;-63
2021/01/11 05:25:42;;;;;;;114.43;51.00;;;3.80;93.40;;;;;;4310422;33;20149;-63
2021/01/11 05:28:14;;;;;;;124.20;51.43;;;3.80;93.40;;;;;;4316280;33;20463;-63
2021/01/11 05:30:42;;;;;;;122.77;51.20;;;3.90;93.40;;;;;;4322984;33;20142;-63
2021/01/11 05:33:20;;;;;;;103.13;47.80;;;3.80;93.50;;;;;;4312609;33;20254;-63
2021/01/11 05:36:02;;;;;;;120.53;50.87;;;3.90;93.50;;;;;;4311187;33;20163;-63
2021/01/11 05:38:40;;;;;;;108.67;49.60;;;3.90;93.50;;;;;;4301240;33;20593;-63
2021/01/11 05:41:14;;;;;;;115.17;50.57;;;3.90;93.50;;;;;;4304505;33;20153;-63
2021/01/11 05:43:44;;;;;;;107.90;47.27;;;3.90;93.50;;;;;;4315530;33;20234;-64
2021/01/11 05:46:25;;;;;;;95.23;45.57;;;3.90;93.60;;;;;;4315675;33;20154;-63
2021/01/11 05:49:08;;;;;;;103.57;47.17;;;3.90;93.60;;;;;;4317116;33;20712;-63
2021/01/11 05:51:37;;;;;;;98.37;43.40;;;3.90;93.60;;;;;;4306434;33;20141;-63
2021/01/11 05:54:27;;;;;;;101.03;47.23;;;4.00;93.60;;;;;;4315519;33;20168;-64
2021/01/11 05:56:57;;;;;;;98.27;47.80;;;4.00;93.60;;;;;;4309269;33;20163;-63
2021/01/11 05:59:24;;;;;;;93.67;46.23;;;4.00;93.60;;;;;;4315651;33;20165;-63
2021/01/11 06:02:04;;;;;;;90.37;45.47;;;4.00;93.70;;;;;;4315540;33;20225;-64
2021/01/11 06:04:36;;;;;;;99.03;48.03;;;4.00;93.70;;;;;;4316016;33;20154;-66
2021/01/11 06:07:05;;;;;;;93.33;43.83;;;4.00;93.60;;;;;;4315302;33;20197;-63
2021/01/11 06:09:33;;;;;;;92.43;45.50;;;4.10;93.70;;;;;;4315337;33;20254;-64
2021/01/11 06:12:06;;;;;;;90.97;46.97;;;4.10;93.70;;;;;;4315099;33;20152;-64
2021/01/11 06:14:37;;;;;;;94.80;48.10;;;4.10;93.80;;;;;;4307525;33;20158;-66
2021/01/11 06:17:13;;;;;;;92.77;47.13;;;4.10;93.80;;;;;;4315054;33;20150;-63
2021/01/11 06:19:51;;;;;;;95.17;48.53;;;4.10;93.80;;;;;;4315159;33;20665;-67
2021/01/11 06:22:23;;;;;;;96.30;49.53;;;4.00;93.90;;;;;;4313454;33;20224;-64
2021/01/11 06:25:34;;;;;;;100.43;50.67;;;4.10;93.90;;;;;;4313421;33;20196;-64
2021/01/11 06:28:04;;;;;;;92.00;49.03;;;4.10;93.90;;;;;;4312098;33;20216;-62
2021/01/11 06:30:46;;;;;;;92.20;48.27;;;4.10;93.90;;;;;;4316425;33;20172;-65
2021/01/11 06:33:16;;;;;;;103.57;55.13;;;4.10;93.90;;;;;;4314098;33;20688;-65
2021/01/11 06:35:45;;;;;;;96.13;51.93;;;4.10;93.90;;;;;;4321531;33;20177;-64
2021/01/11 06:38:20;;;;;;;93.50;50.33;;;4.00;93.90;;;;;;4321131;33;20164;-68
2021/01/11 06:40:54;;;;;;;90.97;48.10;;;4.10;93.90;;;;;;4314940;33;20448;-63
2021/01/11 06:43:26;;;;;;;83.93;48.40;;;4.00;93.80;;;;;;4314118;33;20571;-66
2021/01/11 06:45:59;;;;;;;89.33;50.07;;;4.10;93.80;;;;;;4318094;33;20234;-67
2021/01/11 06:48:41;;;;;;;78.43;43.83;;;4.10;93.80;;;;;;4318168;33;20237;-65
2021/01/11 06:51:09;;;;;;;78.20;46.07;;;4.10;93.80;;;;;;4314701;33;20206;-66
2021/01/11 06:53:39;;;;;;;79.90;45.67;;;4.10;93.80;;;;;;4314116;33;20145;-64
2021/01/11 06:56:06;;;;;;;72.90;43.70;;;4.00;93.70;;;;;;4315913;33;20545;-64
2021/01/11 06:58:35;;;;;;;75.40;44.47;;;4.10;93.80;;;;;;4315312;33;20174;-64
2021/01/11 07:01:08;;;;;;;68.17;40.87;;;4.10;93.70;;;;;;4308891;33;20174;-64
2021/01/11 07:03:52;;;;;;;68.13;41.83;;;4.10;93.60;;;;;;4301470;33;20249;-65
2021/01/11 07:06:49;;;;;;;67.53;40.77;;;4.00;93.60;;;;;;4305570;33;20463;-65
2021/01/11 07:09:17;;;;;;;60.97;38.30;;;4.10;93.60;;;;;;4328488;33;20208;-64
2021/01/11 07:11:48;;;;;;;71.73;41.70;;;4.10;93.50;;;;;;4320850;33;20154;-63
2021/01/11 07:18:15;;;;;;;;;;;;;;;;;;;;;
2021/01/11 07:20:49;;;;;;;63.50;37.97;;;4.00;93.50;;;;;;4312473;33;20223;-67
2021/01/11 07:24:05;;;;;;;62.13;39.33;;;4.00;93.50;;;;;;4309065;33;20158;-64
2021/01/11 07:26:34;;;;;;;67.40;39.33;;;4.00;93.50;;;;;;4315976;33;20621;-65
2021/01/11 07:29:13;;;;;;;58.60;37.13;;;4.00;93.50;;;;;;4310794;33;20155;-64
2021/01/11 07:31:45;;;;;;;62.97;36.20;;;4.00;93.50;;;;;;4314144;33;20180;-63
2021/01/11 07:34:21;;;;;;;59.83;36.20;;;4.00;93.50;;;;;;4314918;33;20176;-65
2021/01/11 07:37:01;;;;;;;63.67;39.60;;;4.00;93.80;;;;;;4317035;33;20196;-64
2021/01/11 07:39:55;;;;;;;61.37;37.27;;;4.00;93.50;;;;;;4315526;33;20153;-64
2021/01/11 07:42:27;;;;;;;54.83;35.07;;;4.00;93.40;;;;;;4312894;33;20145;-64
2021/01/11 07:44:55;;;;;;;60.30;37.43;;;4.00;93.50;;;;;;4313456;33;20166;-64
2021/01/11 07:47:26;;;;;;;60.83;38.37;;;4.00;93.50;;;;;;4315092;33;20189;-65
2021/01/11 07:50:02;;;;;;;59.73;35.13;;;4.10;93.40;;;;;;4314279;33;20163;-62
2021/01/11 07:52:47;;;;;;;52.03;32.97;;;4.10;93.30;;;;;;4314577;33;20202;-67
2021/01/11 07:55:47;;;;;;;51.43;33.53;;;4.20;93.10;;;;;;4315373;33;20152;-66
2021/01/11 07:58:13;;;;;;;52.07;33.07;;;4.10;93.10;;;;;;4269908;33;20161;-64
2021/01/11 08:00:46;;;;;;;50.37;32.93;;;4.10;93.10;;;;;;4268007;33;20162;-63
2021/01/11 08:03:21;;;;;;;49.13;31.57;;;4.20;93.00;;;;;;4268039;33;20191;-63
2021/01/11 08:06:14;;;;;;;56.83;32.13;;;4.20;92.90;;;;;;4268655;33;20194;-63
2021/01/11 08:08:48;;;;;;;54.47;31.70;;;4.20;92.90;;;;;;4269400;33;20230;-64
2021/01/11 08:11:31;;;;;;;46.67;29.57;;;4.20;92.80;;;;;;4270570;33;20169;-64
2021/01/11 08:14:15;;;;;;;47.10;30.70;;;4.30;92.70;;;;;;4271279;33;20163;-68
2021/01/11 08:17:17;;;;;;;50.83;31.20;;;4.30;92.60;;;;;;4272857;33;20199;-64
2021/01/11 08:23:33;;;;;;;;;;;;;;;;;;;;;
2021/01/11 08:26:19;;;;;;;47.40;29.23;;;4.30;92.60;;;;;;4140482;34;20193;-66
2021/01/11 08:35:25;;;;;;;47.73;27.40;;;4.30;92.80;;;;;;4171592;34;20176;-69
2021/01/11 08:38:39;;;;;;;45.87;28.27;;;4.40;92.40;;;;;;4172120;34;20232;-67
2021/01/11 08:41:14;;;;;;;45.73;28.03;;;4.30;92.40;;;;;;4130975;34;20249;-64
2021/01/11 08:44:09;;;;;;;42.70;25.10;;;4.40;92.40;;;;;;4133457;34;20162;-64
2021/01/11 08:47:16;;;;;;;40.10;25.13;;;4.40;92.40;;;;;;4135302;34;20223;-66
2021/01/11 08:56:09;;;;;;;39.03;23.83;;;4.40;92.40;;;;;;4074904;34;20191;-65
2021/01/11 08:58:52;;;;;;;39.57;24.57;;;4.40;92.30;;;;;;4143471;34;20310;-65
2021/01/11 09:01:27;;;;;;;39.40;24.73;;;4.40;92.20;;;;;;4143251;34;20244;-65
2021/01/11 09:03:58;;;;;;;38.67;24.93;;;4.40;92.20;;;;;;4141545;34;20466;-65
2021/01/11 09:09:57;;;;;;;39.17;25.30;;;4.50;92.10;;;;;;4094407;34;20302;-65
2021/01/11 09:12:41;;;;;;;40.90;25.67;;;4.50;92.00;;;;;;4116022;34;20204;-65
2021/01/11 09:15:09;;;;;;;42.57;25.23;;;4.50;92.00;;;;;;4114901;34;20663;-69
2021/01/11 09:17:41;;;;;;;40.23;26.70;;;4.50;92.00;;;;;;4128012;34;20187;-67
2021/01/11 09:20:08;;;;;;;45.63;27.63;;;4.50;92.00;;;;;;4155109;34;20177;-65
2021/01/11 09:23:01;;;;;;;38.73;26.73;;;4.50;92.10;;;;;;4153425;34;20177;-65
2021/01/11 09:25:28;;;;;;;42.93;26.53;;;4.50;92.20;;;;;;4158401;34;20505;-65
2021/01/11 09:28:10;;;;;;;36.97;25.50;;;4.50;92.20;;;;;;4210097;34;20219;-65
2021/01/11 09:30:43;;;;;;;42.67;26.83;;;4.50;92.10;;;;;;4211646;34;20329;-65
2021/01/11 09:33:10;;;;;;;42.87;27.57;;;4.50;92.20;;;;;;4232957;33;20197;-64
2021/01/11 09:36:00;;;;;;;37.87;25.40;;;4.50;92.10;;;;;;4253401;33;20171;-64
2021/01/11 09:38:42;;;;;;;36.63;24.97;;;4.50;92.10;;;;;;4254421;33;20652;-64
2021/01/11 09:41:12;;;;;;;38.73;24.43;;;4.50;92.20;;;;;;4253763;33;20236;-65
2021/01/11 09:43:39;;;;;;;38.70;25.47;;;4.60;92.10;;;;;;4253721;33;20242;-65
2021/01/11 09:46:50;;;;;;;33.43;23.43;;;4.60;91.90;;;;;;4305338;33;20521;-65
2021/01/11 09:49:30;;;;;;;35.13;22.43;;;4.70;92.00;;;;;;4310281;33;20172;-65
2021/01/11 09:52:26;;;;;;;34.17;21.30;;;4.70;91.80;;;;;;4310911;33;20582;-64
2021/01/11 09:55:11;;;;;;;28.30;18.83;;;4.80;91.70;;;;;;4253346;33;20562;-65
2021/01/11 09:57:54;;;;;;;31.47;20.87;;;4.80;91.60;;;;;;4249105;33;20206;-66
2021/01/11 10:04:15;;;;;;;27.33;19.23;;;4.90;91.30;;;;;;4246642;33;20172;-64
2021/01/11 10:06:55;;;;;;;24.27;17.63;;;5.00;91.20;;;;;;4244899;33;20242;-65
2021/01/11 10:09:43;;;;;;;28.87;18.30;;;5.00;91.20;;;;;;4248923;33;20579;-64
2021/01/11 10:12:35;;;;;;;28.70;18.23;;;5.00;91.10;;;;;;4250227;33;20190;-66
2021/01/11 10:15:13;;;;;;;29.70;19.60;;;5.00;91.20;;;;;;4250250;33;20664;-64
2021/01/11 10:17:40;;;;;;;32.10;19.53;;;5.00;91.20;;;;;;4250106;33;20163;-64
2021/01/11 10:20:09;;;;;;;24.07;17.83;;;5.00;91.20;;;;;;4249013;33;20217;-68
2021/01/11 10:25:45;;;;;;;30.97;18.83;;;5.10;91.00;;;;;;4248179;33;20198;-65
2021/01/11 10:28:22;;;;;;;25.23;17.83;;;5.00;91.00;;;;;;4246192;33;20214;-66
2021/01/11 10:31:01;;;;;;;23.33;17.37;;;5.00;91.10;;;;;;4008726;33;8258652;-62
2021/01/11 10:33:38;;;;;;;27.13;17.10;;;5.00;91.20;;;;;;4309823;33;20154;-64
2021/01/11 10:39:14;;;;;;;22.80;16.23;;;5.00;91.10;;;;;;4267342;33;20246;-65
2021/01/11 10:41:52;;;;;;;23.67;16.77;;;5.00;91.10;;;;;;4264036;33;20181;-65
2021/01/11 10:44:27;;;;;;;22.43;16.33;;;5.00;91.20;;;;;;4266392;33;20662;-65
2021/01/11 10:47:21;;;;;;;25.97;16.07;;;5.00;91.10;;;;;;4267626;33;20170;-65
2021/01/11 10:50:09;;;;;;;26.57;16.93;;;5.10;91.20;;;;;;4269028;33;20232;-65
2021/01/11 10:52:47;;;;;;;23.23;15.40;;;5.10;91.00;;;;;;4266225;33;20225;-64
2021/01/11 10:55:26;;;;;;;26.60;16.53;;;5.10;91.00;;;;;;4266575;33;20477;-66
2021/01/11 10:57:55;;;;;;;25.67;17.53;;;5.10;90.90;;;;;;4266121;33;20177;-65
2021/01/11 11:00:40;;;;;;;27.27;16.27;;;5.10;91.10;;;;;;4265693;33;20690;-69
2021/01/11 11:03:17;;;;;;;25.63;17.23;;;5.00;91.00;;;;;;4267001;33;20163;-65
2021/01/11 11:05:44;;;;;;;21.67;15.33;;;5.10;91.00;;;;;;4266992;33;20257;-67
2021/01/11 11:08:14;;;;;;;23.03;16.07;;;5.20;91.00;;;;;;4264758;33;20202;-69
2021/01/11 11:10:44;;;;;;;23.80;16.97;;;5.20;90.70;;;;;;4265351;33;20182;-65
2021/01/11 11:13:13;;;;;;;24.23;15.37;;;5.30;90.70;;;;;;4266988;33;20246;-64
2021/01/11 11:15:44;;;;;;;27.67;18.17;;;5.40;90.60;;;;;;4280049;33;20252;-68
2021/01/11 11:18:10;;;;;;;25.30;16.53;;;5.40;90.60;;;;;;4307265;33;20572;-65
2021/01/11 11:20:37;;;;;;;24.00;16.87;;;5.40;90.40;;;;;;4306153;33;20653;-68
2021/01/11 11:23:05;;;;;;;21.23;15.53;;;5.40;90.50;;;;;;4306981;33;20525;-65
2021/01/11 11:25:33;;;;;;;22.50;15.50;;;5.50;90.30;;;;;;4309962;33;20185;-64
2021/01/11 11:27:59;;;;;;;20.73;14.83;;;5.50;90.30;;;;;;4314283;33;20165;-65
2021/01/11 11:30:26;;;;;;;23.40;16.77;;;5.40;90.30;;;;;;4307493;33;20173;-66
2021/01/11 11:33:07;;;;;;;23.90;15.33;;;5.40;90.20;;;;;;4314267;33;20187;-65
2021/01/11 11:36:04;;;;;;;21.23;15.90;;;5.40;90.30;;;;;;4312091;33;20220;-65
2021/01/11 11:38:37;;;;;;;18.93;14.43;;;5.50;90.30;;;;;;4309018;33;20173;-66
2021/01/11 11:41:16;;;;;;;22.70;14.43;;;5.60;89.90;;;;;;4308625;33;20165;-65
2021/01/11 11:44:04;;;;;;;22.70;14.77;;;5.60;89.80;;;;;;4314010;33;20157;-64
2021/01/11 11:46:41;;;;;;;20.03;13.87;;;5.70;89.20;;;;;;4277654;33;20178;-65
2021/01/11 11:49:30;;;;;;;;;;;;;;;;;;;;;
2021/01/11 11:52:13;;;;;;;23.00;15.47;;;5.70;89.40;;;;;;4279463;33;20170;-64
2021/01/11 11:55:10;;;;;;;18.63;14.10;;;5.60;89.40;;;;;;4279164;33;20237;-67
2021/01/11 11:57:56;;;;;;;20.00;13.27;;;5.60;89.60;;;;;;4281410;33;20166;-67
2021/01/11 12:00:30;;;;;;;19.70;14.93;;;5.70;89.70;;;;;;4281934;33;20209;-67
2021/01/11 12:03:05;;;;;;;21.43;14.30;;;5.80;89.50;;;;;;4284034;33;20173;-66
2021/01/11 12:05:43;;;;;;;21.20;13.90;;;5.90;88.90;;;;;;4278747;33;20702;-66
2021/01/11 12:08:15;;;;;;;17.63;13.80;;;5.90;89.20;;;;;;4280468;33;20224;-66
2021/01/11 12:10:48;;;;;;;19.87;13.60;;;5.90;88.60;;;;;;4278952;33;20222;-69
2021/01/11 12:13:23;;;;;;;18.37;13.93;;;5.80;88.90;;;;;;4283528;33;20610;-65
2021/01/11 12:15:50;;;;;;;18.63;13.20;;;5.80;88.90;;;;;;4282906;33;20362;-69
2021/01/11 12:18:20;;;;;;;17.67;13.87;;;5.90;89.10;;;;;;4285092;33;21008;-65
2021/01/11 12:20:55;;;;;;;19.47;13.00;;;5.90;88.90;;;;;;4282465;33;20233;-67
2021/01/11 12:23:24;;;;;;;18.93;13.10;;;5.90;88.30;;;;;;4298082;33;20164;-66
2021/01/11 12:25:50;;;;;;;21.27;13.73;;;5.90;88.80;;;;;;4314255;33;20220;-64
2021/01/11 12:28:19;;;;;;;20.03;13.93;;;5.90;88.40;;;;;;4312567;33;20180;-65
2021/01/11 12:30:54;;;;;;;23.70;15.20;;;5.80;88.90;;;;;;4312716;33;20628;-65
2021/01/11 12:33:23;;;;;;;19.60;14.23;;;5.80;88.60;;;;;;4314026;33;20228;-67
2021/01/11 12:35:57;;;;;;;19.03;14.47;;;5.90;88.90;;;;;;4314926;33;20621;-64
2021/01/11 12:38:33;;;;;;;20.70;14.43;;;5.90;88.90;;;;;;4314110;33;20213;-67
2021/01/11 12:41:24;;;;;;;;;;;;;;;;;;;;;
2021/01/11 12:44:02;;;;;;;20.73;15.20;;;5.90;88.80;;;;;;4310545;33;20182;-63
2021/01/11 12:46:30;;;;;;;19.77;14.70;;;5.90;89.50;;;;;;4311328;33;20170;-65
2021/01/11 12:48:56;;;;;;;23.03;15.83;;;5.90;88.90;;;;;;4311479;33;20177;-65
2021/01/11 12:51:28;;;;;;;20.37;16.07;;;5.90;88.90;;;;;;4312108;33;20158;-64
2021/01/11 12:54:06;;;;;;;21.77;15.83;;;5.90;88.80;;;;;;4311273;33;20198;-65
2021/01/11 12:56:32;;;;;;;22.63;15.83;;;5.90;89.10;;;;;;4313108;33;20224;-66
2021/01/11 12:59:02;;;;;;;26.10;15.60;;;5.80;89.10;;;;;;4312166;33;20185;-64
2021/01/11 13:01:38;;;;;;;18.77;14.80;;;5.90;89.40;;;;;;4313367;33;20553;-67
2021/01/11 13:04:04;;;;;;;22.30;15.20;;;5.80;89.30;;;;;;4314090;33;20180;-63
2021/01/11 13:06:35;;;;;;;22.33;15.87;;;5.80;89.60;;;;;;4311791;33;20220;-65
2021/01/11 13:09:04;;;;;;;23.80;15.40;;;5.80;89.80;;;;;;4313119;33;20213;-68
2021/01/11 13:11:34;;;;;;;22.93;15.17;;;5.70;90.00;;;;;;4312471;33;20216;-67
2021/01/11 13:14:05;;;;;;;19.87;14.37;;;5.70;90.00;;;;;;4312167;33;20221;-64
2021/01/11 13:16:36;;;;;;;21.77;16.10;;;5.70;90.00;;;;;;4315237;33;20227;-65
2021/01/11 13:19:13;;;;;;;19.33;13.83;;;5.80;90.00;;;;;;4309881;33;20658;-66
2021/01/11 13:21:41;;;;;;;19.03;14.33;;;5.70;90.00;;;;;;4318483;33;20179;-66
2021/01/11 13:24:34;;;;;;;20.13;13.77;;;5.80;89.60;;;;;;4315877;33;20193;-64
2021/01/11 13:27:20;;;;;;;21.77;14.80;;;5.90;89.60;;;;;;4314113;33;20173;-69
2021/01/11 13:32:47;;;;;;;24.03;14.83;;;5.90;89.80;;;;;;4271484;33;20630;-66
2021/01/11 13:35:42;;;;;;;20.73;13.93;;;5.90;90.10;;;;;;4265119;33;20195;-68
2021/01/11 13:38:32;;;;;;;18.77;14.23;;;5.90;89.60;;;;;;4263905;33;20164;-64
2021/01/11 13:41:09;;;;;;;21.80;14.13;;;5.90;89.40;;;;;;4269678;33;20175;-66
2021/01/11 13:43:41;;;;;;;22.23;14.63;;;5.90;89.60;;;;;;4271038;33;20495;-64
2021/01/11 13:46:15;;;;;;;23.20;16.20;;;5.80;89.90;;;;;;4262792;33;20805;-69
2021/01/11 13:48:50;;;;;;;19.83;14.30;;;5.90;90.00;;;;;;4264856;33;20983;-63
2021/01/11 13:51:16;;;;;;;23.73;14.47;;;5.90;89.30;;;;;;4264819;33;20194;-64
2021/01/11 13:53:47;;;;;;;21.40;14.87;;;5.90;89.40;;;;;;4263687;33;20185;-64
2021/01/11 13:56:38;;;;;;;20.43;14.37;;;5.90;89.60;;;;;;4258853;33;20228;-64